createdAt,value
2022-12-18T00:02:53.312Z,-3.70
2022-12-18T00:07:55.880Z,-3.60
2022-12-18T00:12:58.285Z,-3.60
2022-12-18T00:18:00.847Z,-3.60
2022-12-18T00:23:03.561Z,-3.50
2022-12-18T00:28:06.057Z,-3.50
2022-12-18T00:33:08.544Z,-3.50
2022-12-18T00:38:10.951Z,-3.50
2022-12-18T00:43:13.477Z,-3.60
2022-12-18T00:48:15.967Z,-3.50
2022-12-18T00:53:19.144Z,-3.30
2022-12-18T00:58:21.747Z,-3.20
2022-12-18T01:03:24.177Z,-3.70
2022-12-18T01:08:27.356Z,-3.90
2022-12-18T01:13:30.010Z,-4.00
2022-12-18T01:18:32.631Z,-4.00
2022-12-18T01:23:35.375Z,-3.80
2022-12-18T01:28:38.523Z,-1.60
2022-12-18T01:33:42.803Z,-3.70
2022-12-18T01:38:45.760Z,-3.60
2022-12-18T01:43:58.983Z,-3.80
2022-12-18T01:49:03.084Z,-3.80
2022-12-18T01:54:05.675Z,-3.90
2022-12-18T01:59:11.113Z,-3.80
2022-12-18T02:04:28.255Z,-3.90
2022-12-18T02:09:40.221Z,-3.80
2022-12-18T02:14:56.791Z,-3.80
2022-12-18T02:20:17.672Z,-3.80
2022-12-18T02:25:38.965Z,-3.80
2022-12-18T02:30:43.733Z,-3.90
2022-12-18T02:35:48.332Z,-3.80
2022-12-18T02:40:52.963Z,-3.80
2022-12-18T02:45:59.024Z,-3.90
2022-12-18T02:51:06.850Z,-2.70
2022-12-18T02:56:18.355Z,-3.90
2022-12-18T03:01:32.981Z,-3.90
2022-12-18T03:06:50.924Z,-3.90
2022-12-18T03:12:23.785Z,-3.80
2022-12-18T03:17:31.233Z,-3.80
2022-12-18T03:22:36.290Z,-3.80
2022-12-18T03:27:46.752Z,-3.80
2022-12-18T03:33:02.907Z,-3.70
2022-12-18T03:38:06.779Z,-3.80
2022-12-18T03:43:36.663Z,-3.70
2022-12-18T03:48:45.385Z,-3.80
2022-12-18T03:54:00.484Z,-3.70
2022-12-18T03:59:09.588Z,-3.60
2022-12-18T04:04:15.508Z,-3.60
2022-12-18T04:09:20.815Z,-2.10
2022-12-18T04:14:24.396Z,-3.70
2022-12-18T04:19:30.827Z,-3.80
2022-12-18T04:24:34.364Z,-3.70
2022-12-18T04:29:43.940Z,-3.70
2022-12-18T04:34:46.852Z,-3.60
2022-12-18T04:39:49.612Z,-3.60
2022-12-18T04:44:59.594Z,-3.70
2022-12-18T04:50:02.100Z,-3.80
2022-12-18T04:55:04.820Z,-3.70
2022-12-18T05:00:08.216Z,-3.60
2022-12-18T05:05:11.145Z,-3.60
2022-12-18T05:10:13.731Z,-3.70
2022-12-18T05:15:16.267Z,-3.70
2022-12-18T05:20:19.388Z,-3.80
2022-12-18T05:25:22.442Z,-2.30
2022-12-18T05:30:25.008Z,-2.30
2022-12-18T05:35:27.679Z,-3.80
2022-12-18T05:40:30.549Z,-3.70
2022-12-18T05:45:37.421Z,-3.80
2022-12-18T05:50:41.791Z,-2.30
2022-12-18T05:55:45.059Z,-3.80
2022-12-18T06:00:47.880Z,-3.90
2022-12-18T06:05:50.423Z,-3.90
2022-12-18T06:10:53.856Z,-2.20
2022-12-18T06:15:56.476Z,-3.90
2022-12-18T06:21:00.557Z,-2.50
2022-12-18T06:26:08.592Z,-4.00
2022-12-18T06:31:11.589Z,-4.00
2022-12-18T06:36:14.904Z,-2.60
2022-12-18T06:41:21.250Z,-1.70
2022-12-18T06:46:23.759Z,-4.10
2022-12-18T06:51:27.405Z,-4.10
2022-12-18T06:56:30.050Z,-4.00
2022-12-18T07:01:32.684Z,-4.00
2022-12-18T07:06:35.335Z,-4.00
2022-12-18T07:11:37.924Z,-1.70
2022-12-18T07:16:40.548Z,-4.10
2022-12-18T07:21:43.148Z,-4.00
2022-12-18T07:26:48.679Z,-4.00
2022-12-18T07:31:51.206Z,-3.60
2022-12-18T07:36:53.730Z,-3.70
2022-12-18T07:42:14.925Z,-3.70
2022-12-18T07:47:17.478Z,-3.70
2022-12-18T07:52:24.335Z,-2.40
2022-12-18T07:57:49.485Z,-3.60
2022-12-18T08:02:51.324Z,-3.50
2022-12-18T08:07:54.448Z,-3.60
2022-12-18T08:13:01.419Z,-3.60
2022-12-18T08:18:11.350Z,-3.60
2022-12-18T08:23:16.463Z,-3.50
2022-12-18T08:28:20.092Z,-3.30
2022-12-18T08:33:22.620Z,-3.00
2022-12-18T08:38:25.121Z,-2.20
2022-12-18T08:43:46.718Z,-3.60
2022-12-18T08:48:51.587Z,-3.90
2022-12-18T08:53:54.427Z,-3.60
2022-12-18T08:58:57.194Z,-2.20
2022-12-18T09:04:02.590Z,-3.00
2022-12-18T09:09:06.049Z,-2.40
2022-12-18T09:14:10.267Z,-2.90
2022-12-18T09:19:13.013Z,-3.30
2022-12-18T09:24:16.320Z,-3.40
2022-12-18T09:29:19.172Z,-3.00
2022-12-18T09:34:22.923Z,-3.40
2022-12-18T09:39:25.552Z,-3.30
2022-12-18T09:44:30.887Z,-3.20
2022-12-18T09:49:38.369Z,-3.40
2022-12-18T09:54:43.580Z,-3.50
2022-12-18T09:59:54.100Z,-3.00
2022-12-18T10:05:15.497Z,-2.70
2022-12-18T10:10:26.797Z,-2.80
2022-12-18T10:15:39.961Z,-3.00
2022-12-18T10:20:48.264Z,-2.80
2022-12-18T10:26:09.125Z,-2.60
2022-12-18T10:31:20.809Z,-2.60
2022-12-18T10:36:27.112Z,-3.80
2022-12-18T10:41:31.842Z,-4.00
2022-12-18T10:46:34.515Z,-4.10
2022-12-18T10:51:41.338Z,-4.10
2022-12-18T10:56:44.288Z,-4.00
2022-12-18T11:01:47.115Z,-2.80
2022-12-18T11:06:57.342Z,-3.40
2022-12-18T11:12:02.350Z,-3.40
2022-12-18T11:22:30.204Z,-1.80
2022-12-18T11:27:33.319Z,-4.10
2022-12-18T11:32:41.997Z,-4.10
2022-12-18T11:37:50.458Z,-3.50
2022-12-18T11:43:00.684Z,-1.80
2022-12-18T11:48:11.947Z,-3.80
2022-12-18T11:53:14.537Z,-3.90
2022-12-18T11:58:49.429Z,-4.30
2022-12-18T12:04:04.427Z,-4.30
2022-12-18T12:09:20.358Z,-4.10
2022-12-18T12:14:28.792Z,-4.10
2022-12-18T12:19:58.494Z,-4.30
2022-12-18T12:25:09.085Z,-4.30
2022-12-18T12:30:43.936Z,-4.30
2022-12-18T12:36:17.357Z,-4.10
2022-12-18T12:41:43.624Z,-4.20
2022-12-18T12:46:48.833Z,-4.30
2022-12-18T12:52:04.986Z,-2.40
2022-12-18T12:57:24.654Z,-4.60
2022-12-18T13:03:00.633Z,-4.70
2022-12-18T13:08:07.631Z,-4.80
2022-12-18T13:13:18.664Z,-4.80
2022-12-18T13:18:28.417Z,-4.90
2022-12-18T13:29:47.612Z,-5.10
2022-12-18T13:35:10.139Z,-4.40
2022-12-18T13:40:47.910Z,-5.30
2022-12-18T13:46:02.648Z,-5.50
2022-12-18T13:51:08.572Z,-5.40
2022-12-18T13:56:17.320Z,-5.40
2022-12-18T14:01:24.726Z,-5.50
2022-12-18T14:06:28.220Z,-5.40
2022-12-18T14:11:31.368Z,-5.50
2022-12-18T14:16:35.238Z,-5.40
2022-12-18T14:21:39.478Z,-2.70
2022-12-18T14:26:43.197Z,-5.50
2022-12-18T14:31:46.074Z,-5.60
2022-12-18T14:36:56.879Z,-4.60
2022-12-18T14:41:59.424Z,-5.80
2022-12-18T14:47:01.931Z,-5.60
2022-12-18T14:52:18.835Z,-5.80
2022-12-18T14:57:31.582Z,-5.90
2022-12-18T15:02:37.437Z,-5.90
2022-12-18T15:07:52.309Z,-5.90
2022-12-18T15:12:57.768Z,-5.80
2022-12-18T15:18:22.677Z,-5.80
2022-12-18T15:23:26.459Z,-5.80
2022-12-18T15:28:44.465Z,-5.70
2022-12-18T15:33:53.843Z,-5.70
2022-12-18T15:39:04.946Z,-5.60
2022-12-18T15:44:38.448Z,-5.60
2022-12-18T15:49:40.981Z,-5.70
2022-12-18T15:55:02.684Z,-5.60
2022-12-18T16:00:05.731Z,-5.70
2022-12-18T16:05:18.792Z,-5.70
2022-12-18T16:10:21.697Z,-5.80
2022-12-18T16:15:24.901Z,-5.90
2022-12-18T16:20:27.679Z,-6.10
2022-12-18T16:25:30.348Z,-6.40
2022-12-18T16:30:35.450Z,-6.40
2022-12-18T16:35:41.535Z,-6.20
2022-12-18T16:41:05.035Z,-6.20
2022-12-18T16:46:07.560Z,-6.40
2022-12-18T16:56:13.055Z,-6.20
2022-12-18T17:01:15.821Z,-6.50
2022-12-18T17:06:18.451Z,-6.40
2022-12-18T17:11:21.459Z,-6.30
2022-12-18T17:16:24.822Z,-6.40
2022-12-18T17:21:27.421Z,-7.30
2022-12-18T17:26:30.532Z,-6.10
2022-12-18T17:31:34.550Z,-5.90
2022-12-18T17:36:37.924Z,-5.90
2022-12-18T17:41:40.483Z,-5.80
2022-12-18T17:46:43.830Z,-6.00
2022-12-18T17:51:46.483Z,-6.20
2022-12-18T17:56:49.036Z,-6.30
2022-12-18T18:01:52.585Z,-6.20
2022-12-18T18:06:55.466Z,-6.00
2022-12-18T18:12:16.817Z,-2.30
2022-12-18T18:17:37.315Z,-6.00
2022-12-18T18:22:39.977Z,-6.20
2022-12-18T18:27:42.548Z,-6.10
2022-12-18T18:32:47.160Z,-6.10
2022-12-18T18:37:49.662Z,-6.10
2022-12-18T18:42:54.126Z,-6.00
2022-12-18T18:47:56.732Z,-6.00
2022-12-18T18:52:59.201Z,-6.20
2022-12-18T18:58:01.759Z,-6.20
2022-12-18T19:03:14.662Z,-6.00
2022-12-18T19:08:17.308Z,-6.00
2022-12-18T19:13:21.149Z,-6.00
2022-12-18T19:18:24.101Z,-5.90
2022-12-18T19:23:27.596Z,-5.90
2022-12-18T19:28:34.314Z,-6.10
2022-12-18T19:33:43.868Z,-6.10
2022-12-18T19:38:48.810Z,-6.30
2022-12-18T19:43:52.326Z,-6.30
2022-12-18T19:48:55.038Z,-6.20
2022-12-18T19:54:01.182Z,-6.20
2022-12-18T19:59:05.425Z,-6.20
2022-12-18T20:04:08.092Z,-6.20
2022-12-18T20:09:11.658Z,-6.40
2022-12-18T20:14:22.734Z,-6.40
2022-12-18T20:19:27.161Z,-6.50
2022-12-18T20:24:29.873Z,-6.30
2022-12-18T20:29:32.905Z,-6.30
2022-12-18T20:34:35.812Z,-6.50
2022-12-18T20:39:39.072Z,-6.60
2022-12-18T20:44:42.382Z,-6.50
2022-12-18T20:49:45.805Z,-3.10
2022-12-18T20:54:48.384Z,-6.40
2022-12-18T20:59:50.994Z,-3.30
2022-12-18T21:04:54.376Z,-6.30
2022-12-18T21:09:57.159Z,-6.40
2022-12-18T21:15:01.646Z,-6.30
2022-12-18T21:20:05.387Z,-6.00
2022-12-18T21:25:09.795Z,-6.00
2022-12-18T21:30:13.632Z,-6.10
2022-12-18T21:35:16.838Z,-6.10
2022-12-18T21:40:19.963Z,-6.00
2022-12-18T21:45:22.532Z,-6.10
2022-12-18T21:50:24.998Z,-6.00
2022-12-18T21:55:27.468Z,-6.10
2022-12-18T22:00:30.012Z,-2.70
2022-12-18T22:05:32.527Z,-6.10
2022-12-18T22:10:35.467Z,-6.10
2022-12-18T22:15:37.943Z,-6.00
2022-12-18T22:20:40.502Z,-6.00
2022-12-18T22:25:42.975Z,-3.20
2022-12-18T22:30:45.494Z,-5.80
2022-12-18T22:35:48.212Z,-3.30
2022-12-18T22:40:54.442Z,-5.80
2022-12-18T22:45:58.361Z,-5.90
2022-12-18T22:51:00.991Z,-5.80
2022-12-18T22:56:03.926Z,-6.00
2022-12-18T23:01:07.190Z,-6.10
2022-12-18T23:06:10.647Z,-6.10
2022-12-18T23:11:13.919Z,-3.30
2022-12-18T23:16:19.815Z,-6.50
2022-12-18T23:21:23.479Z,-6.50
2022-12-18T23:26:27.610Z,-6.80
2022-12-18T23:31:36.107Z,-6.90
2022-12-18T23:36:46.536Z,-7.00
2022-12-18T23:41:49.723Z,-7.20
2022-12-18T23:51:55.708Z,-7.40
2022-12-18T23:56:58.547Z,-7.50
